Time;durP1;ratioP1;P1;durP2;ratioP2;P2;SDS_P1;SDS_P2;PMS_P1;PMS_P2;Temp;Humidity;BMP_temperature;BMP_pressure;BME280_temperature;BME280_humidity;BME280_pressure;Samples;Min_cycle;Max_cycle;Signal;HPM_P1;HPM_P2
2022/12/11 00:01:15;;;;;;;48.00;17.90;;;-0.30;99.90;;;;;;5031718;28;20033;-45
2022/12/11 00:03:41;;;;;;;45.08;15.52;;;-0.70;99.90;;;;;;5031679;28;20117;-46
2022/12/11 00:06:08;;;;;;;41.08;16.58;;;-0.60;99.90;;;;;;5031757;28;20091;-45
2022/12/11 00:08:34;;;;;;;51.67;19.02;;;-0.30;99.90;;;;;;5031388;28;20045;-46
2022/12/11 00:11:00;;;;;;;46.55;15.73;;;-0.60;99.90;;;;;;5038971;28;20071;-48
2022/12/11 00:13:26;;;;;;;50.33;15.93;;;-0.30;99.90;;;;;;5054906;28;20485;-49
2022/12/11 00:15:52;;;;;;;47.00;16.13;;;-0.20;99.90;;;;;;5055166;28;20389;-49
2022/12/11 00:18:17;;;;;;;47.33;16.90;;;-0.20;99.90;;;;;;5054878;28;20094;-46
2022/12/11 00:20:43;;;;;;;46.35;17.65;;;-0.50;99.90;;;;;;5036855;28;20037;-47
2022/12/11 00:23:09;;;;;;;50.88;17.10;;;-0.30;99.90;;;;;;5054740;28;20045;-49
2022/12/11 00:25:43;;;;;;;43.47;16.55;;;-0.40;99.90;;;;;;5037028;28;20041;-48
2022/12/11 00:28:10;;;;;;;41.53;14.90;;;-0.30;99.90;;;;;;5054552;28;20073;-47
2022/12/11 00:30:42;;;;;;;46.55;16.77;;;-0.60;99.90;;;;;;5054599;28;20045;-47
2022/12/11 00:33:09;;;;;;;40.75;17.05;;;-0.30;99.90;;;;;;5054487;28;20405;-46
2022/12/11 00:35:39;;;;;;;48.63;16.83;;;-0.30;99.90;;;;;;5037022;28;20154;-46
2022/12/11 00:38:05;;;;;;;44.63;15.02;;;0.00;99.90;;;;;;5054485;28;20440;-45
2022/12/11 00:40:36;;;;;;;49.85;17.98;;;-0.20;99.90;;;;;;5054245;28;20049;-46
2022/12/11 00:43:02;;;;;;;43.20;16.05;;;-0.10;99.90;;;;;;5054560;28;20045;-46
2022/12/11 00:45:28;;;;;;;42.25;16.73;;;-0.10;99.90;;;;;;5054335;28;20075;-46
2022/12/11 00:47:53;;;;;;;45.03;15.48;;;0.00;99.90;;;;;;5036483;28;20064;-47
2022/12/11 00:50:19;;;;;;;42.30;15.20;;;0.00;99.90;;;;;;5054280;28;20095;-46
2022/12/11 00:52:45;;;;;;;46.90;15.85;;;-0.10;99.90;;;;;;5054157;28;20037;-46
2022/12/11 00:55:10;;;;;;;44.33;14.32;;;0.00;99.90;;;;;;5054655;28;20044;-48
2022/12/11 00:57:36;;;;;;;46.63;15.30;;;0.00;99.90;;;;;;5034504;28;20045;-47
2022/12/11 01:00:07;;;;;;;43.00;14.50;;;0.00;99.90;;;;;;5034118;28;20048;-50
2022/12/11 01:02:33;;;;;;;37.17;14.18;;;-0.30;99.90;;;;;;5034127;28;20042;-48
2022/12/11 01:04:59;;;;;;;48.50;16.70;;;-0.20;99.90;;;;;;5034204;28;20116;-46
2022/12/11 01:07:25;;;;;;;39.85;14.45;;;-0.10;99.90;;;;;;5033919;28;20041;-46
2022/12/11 01:12:35;;;;;;;40.83;15.23;;;-0.30;99.90;;;;;;5018976;28;20080;-45
2022/12/11 01:15:01;;;;;;;38.33;14.57;;;0.00;99.90;;;;;;5033831;28;20457;-46
2022/12/11 01:17:27;;;;;;;44.08;14.77;;;0.00;99.90;;;;;;5016039;28;20056;-46
2022/12/11 01:19:53;;;;;;;38.38;14.02;;;-0.10;99.90;;;;;;5033640;28;20045;-45
2022/12/11 01:22:19;;;;;;;40.97;14.48;;;-0.20;99.90;;;;;;5033753;28;20038;-46
2022/12/11 01:24:45;;;;;;;43.30;16.05;;;-0.10;99.90;;;;;;5033427;28;20440;-47
2022/12/11 01:27:10;;;;;;;37.53;14.82;;;-0.10;99.90;;;;;;5033561;28;20045;-46
2022/12/11 01:29:36;;;;;;;42.30;14.20;;;0.10;99.90;;;;;;5033822;28;20052;-45
2022/12/11 01:32:02;;;;;;;39.38;13.07;;;-0.20;99.90;;;;;;5033542;28;20505;-46
2022/12/11 01:34:32;;;;;;;41.40;15.50;;;0.10;99.90;;;;;;5015900;28;20057;-46
2022/12/11 01:36:58;;;;;;;43.47;14.68;;;-0.20;99.90;;;;;;5015777;28;20077;-45
2022/12/11 01:39:23;;;;;;;44.30;14.25;;;0.10;99.90;;;;;;5033305;28;20450;-45
2022/12/11 01:41:49;;;;;;;38.40;14.02;;;0.20;99.90;;;;;;5033563;28;20041;-49
2022/12/11 01:44:15;;;;;;;42.03;14.73;;;-0.10;99.90;;;;;;5015860;28;20041;-50
2022/12/11 01:46:41;;;;;;;44.83;16.30;;;-0.10;99.90;;;;;;5033620;28;20390;-47
2022/12/11 01:49:11;;;;;;;48.30;15.43;;;-0.10;99.90;;;;;;5033210;28;20037;-49
2022/12/11 01:51:55;;;;;;;46.15;14.88;;;0.20;99.90;;;;;;5033153;28;20041;-47
2022/12/11 01:54:23;;;;;;;45.40;15.52;;;0.30;99.90;;;;;;5033036;28;20045;-48
2022/12/11 01:56:52;;;;;;;40.35;15.45;;;0.10;99.90;;;;;;5046487;28;20041;-47
2022/12/11 01:59:22;;;;;;;50.20;16.27;;;-0.10;99.90;;;;;;5052646;28;20045;-46
2022/12/11 02:02:02;;;;;;;49.97;16.15;;;-0.10;99.90;;;;;;5052849;28;20041;-46
2022/12/11 02:04:28;;;;;;;43.65;14.75;;;0.10;99.90;;;;;;5052914;28;20040;-46
2022/12/11 02:06:54;;;;;;;53.30;18.60;;;0.20;99.90;;;;;;5041343;28;20041;-46
2022/12/11 02:09:26;;;;;;;50.17;16.77;;;-0.10;99.90;;;;;;5032777;28;20041;-46
2022/12/11 02:12:16;;;;;;;53.80;16.17;;;0.20;99.90;;;;;;5032715;28;20111;-46
2022/12/11 02:14:56;;;;;;;46.03;17.25;;;0.30;99.90;;;;;;5032787;28;20049;-50
2022/12/11 02:17:38;;;;;;;51.25;16.92;;;0.00;99.90;;;;;;5032632;28;20387;-47
2022/12/11 02:20:09;;;;;;;39.17;14.93;;;-0.10;99.90;;;;;;5032393;28;20041;-47
2022/12/11 02:23:12;;;;;;;51.95;18.77;;;0.30;99.90;;;;;;5032571;28;20834;-50
2022/12/11 02:26:05;;;;;;;52.03;17.65;;;0.40;99.90;;;;;;5032715;28;20045;-46
2022/12/11 02:28:42;;;;;;;45.47;15.80;;;0.40;99.90;;;;;;5032551;28;20057;-49
2022/12/11 02:31:16;;;;;;;48.78;15.93;;;0.20;99.90;;;;;;5015082;28;20080;-46
2022/12/11 02:33:52;;;;;;;52.92;18.13;;;0.20;99.90;;;;;;5032412;28;20100;-47
2022/12/11 02:36:22;;;;;;;52.67;16.70;;;0.10;99.90;;;;;;5032599;28;20393;-45
2022/12/11 02:38:51;;;;;;;49.78;17.65;;;0.50;99.90;;;;;;4998405;28;20454;-46
2022/12/11 02:41:19;;;;;;;49.30;18.27;;;0.50;99.90;;;;;;5032227;28;20058;-46
2022/12/11 02:43:48;;;;;;;50.58;16.95;;;0.10;99.90;;;;;;5032406;28;20109;-46
2022/12/11 02:46:16;;;;;;;44.20;15.77;;;0.30;99.90;;;;;;5032210;28;20490;-48
2022/12/11 02:48:43;;;;;;;54.13;18.60;;;0.20;99.90;;;;;;5032336;28;20029;-47
2022/12/11 02:51:11;;;;;;;52.88;17.92;;;0.10;99.90;;;;;;5032111;28;20049;-47
2022/12/11 02:53:40;;;;;;;58.80;19.27;;;0.00;99.90;;;;;;5032072;28;20466;-47
2022/12/11 02:56:35;;;;;;;55.13;19.58;;;0.00;99.90;;;;;;5039138;28;20064;-45
2022/12/11 02:59:08;;;;;;;49.97;18.27;;;0.40;99.90;;;;;;5051872;28;20107;-46
2022/12/11 03:01:33;;;;;;;57.67;20.38;;;0.10;99.90;;;;;;5040764;28;20040;-46
2022/12/11 03:03:59;;;;;;;45.75;17.35;;;0.10;99.90;;;;;;5031904;28;20127;-45
2022/12/11 03:06:31;;;;;;;53.80;17.83;;;0.50;99.90;;;;;;5032008;28;20065;-47
2022/12/11 03:08:57;;;;;;;63.10;18.30;;;0.10;99.90;;;;;;5032111;28;20124;-46
2022/12/11 03:11:22;;;;;;;56.63;19.90;;;0.50;99.90;;;;;;5031868;28;20120;-45
2022/12/11 03:13:48;;;;;;;46.72;18.20;;;0.40;99.90;;;;;;5032153;28;20041;-46
2022/12/11 03:16:31;;;;;;;56.92;19.65;;;0.20;99.90;;;;;;5031836;28;20060;-49
2022/12/11 03:19:23;;;;;;;53.15;17.38;;;0.40;99.90;;;;;;5014094;28;20049;-50
2022/12/11 03:21:54;;;;;;;54.22;17.63;;;0.50;99.90;;;;;;5032100;28;20038;-48
2022/12/11 03:24:33;;;;;;;52.22;16.75;;;0.30;99.90;;;;;;5032166;28;20056;-47
2022/12/11 03:27:06;;;;;;;56.17;17.45;;;0.50;99.90;;;;;;5031866;28;20042;-48
2022/12/11 03:29:39;;;;;;;59.80;18.35;;;0.50;99.90;;;;;;5014105;28;20037;-45
2022/12/11 03:32:21;;;;;;;50.40;16.75;;;0.20;99.90;;;;;;5031712;28;20117;-46
2022/12/11 03:34:51;;;;;;;;;;;0.30;99.90;;;;;;5014417;28;20156;-45
2022/12/11 03:37:20;;;;;;;56.65;16.75;;;0.40;99.90;;;;;;5014125;28;20381;-46
2022/12/11 03:39:50;;;;;;;46.22;16.35;;;0.20;99.90;;;;;;5031454;28;20124;-46
2022/12/11 03:42:18;;;;;;;47.70;15.98;;;0.20;99.90;;;;;;5014128;28;20045;-49
2022/12/11 03:44:48;;;;;;;57.65;18.38;;;0.40;99.90;;;;;;5032059;28;20417;-45
2022/12/11 03:47:18;;;;;;;56.05;19.67;;;0.50;99.90;;;;;;5016101;28;20466;-48
2022/12/11 03:49:46;;;;;;;48.80;16.17;;;0.50;99.90;;;;;;5035452;28;20098;-47
2022/12/11 03:52:13;;;;;;;52.90;17.50;;;0.50;99.90;;;;;;5035448;28;20500;-47
2022/12/11 03:54:41;;;;;;;56.42;18.83;;;0.10;99.90;;;;;;5017963;28;20041;-46
2022/12/11 03:57:10;;;;;;;54.30;18.38;;;0.50;99.90;;;;;;5051144;28;20041;-47
2022/12/11 03:59:37;;;;;;;55.40;17.77;;;0.10;99.90;;;;;;5055159;28;20045;-46
2022/12/11 04:02:09;;;;;;;44.38;15.90;;;0.60;99.90;;;;;;5037624;28;20408;-46
2022/12/11 04:04:36;;;;;;;57.10;17.98;;;0.50;99.90;;;;;;5055087;28;20041;-45
2022/12/11 04:07:02;;;;;;;51.80;17.55;;;0.50;99.90;;;;;;5055128;28;20394;-45
2022/12/11 04:09:28;;;;;;;45.97;17.30;;;0.60;99.90;;;;;;5054982;28;20044;-45
2022/12/11 04:11:53;;;;;;;44.75;14.82;;;0.50;99.90;;;;;;5054745;28;20063;-45
2022/12/11 04:17:05;;;;;;;53.50;16.23;;;0.70;99.90;;;;;;5054926;28;20064;-46
2022/12/11 04:24:51;;;;;;;47.03;16.23;;;0.60;99.90;;;;;;5054948;28;20078;-45
2022/12/11 04:27:47;;;;;;;56.40;19.00;;;0.70;99.90;;;;;;5054767;28;20055;-45
2022/12/11 04:30:05;;;;;;;39.33;12.80;;;0.50;99.90;;;;;;5054424;28;20049;-46
2022/12/11 04:32:31;;;;;;;36.47;12.93;;;0.30;99.90;;;;;;5054467;28;20041;-45
2022/12/11 04:34:57;;;;;;;38.20;14.93;;;0.30;99.90;;;;;;5054618;28;20429;-46
2022/12/11 04:37:23;;;;;;;35.67;13.05;;;0.50;99.90;;;;;;5054512;28;20111;-47
2022/12/11 04:39:48;;;;;;;35.03;13.27;;;0.30;99.90;;;;;;5054324;28;20049;-46
2022/12/11 04:42:14;;;;;;;39.17;13.77;;;0.60;99.90;;;;;;5054349;28;20033;-46
2022/12/11 04:44:40;;;;;;;38.88;13.25;;;0.50;99.90;;;;;;5054576;28;20464;-45
2022/12/11 04:47:05;;;;;;;36.30;13.43;;;0.40;99.90;;;;;;5054621;28;20508;-49
2022/12/11 04:49:31;;;;;;;39.08;13.93;;;0.30;99.90;;;;;;5054407;28;20048;-46
2022/12/11 04:51:56;;;;;;;41.25;14.35;;;0.20;99.90;;;;;;5054230;28;20396;-48
2022/12/11 04:54:22;;;;;;;39.70;14.23;;;0.30;99.90;;;;;;5054176;28;20041;-47
2022/12/11 04:56:48;;;;;;;42.70;14.45;;;0.70;99.90;;;;;;5053881;28;20041;-46
2022/12/11 04:59:13;;;;;;;40.90;14.45;;;0.30;99.90;;;;;;5036259;28;20048;-45
2022/12/11 05:01:39;;;;;;;37.22;13.43;;;0.50;99.90;;;;;;5053842;28;20037;-46
2022/12/11 05:04:05;;;;;;;38.22;15.18;;;0.80;99.90;;;;;;5036553;28;20047;-46
2022/12/11 05:06:30;;;;;;;32.75;13.18;;;0.30;99.90;;;;;;5053871;28;20037;-45
2022/12/11 05:08:56;;;;;;;36.50;12.73;;;0.70;99.90;;;;;;5053811;28;20037;-46
2022/12/11 05:11:21;;;;;;;46.40;15.50;;;0.20;99.90;;;;;;5054099;28;20041;-47
2022/12/11 05:13:47;;;;;;;35.13;12.45;;;0.50;99.90;;;;;;5053968;28;20045;-48
2022/12/11 05:16:15;;;;;;;43.03;14.80;;;0.30;99.90;;;;;;5053881;28;20065;-48
2022/12/11 05:18:41;;;;;;;34.97;13.20;;;0.50;99.90;;;;;;5054052;28;20048;-46
2022/12/11 05:21:10;;;;;;;39.63;12.80;;;0.30;99.90;;;;;;5053674;28;20076;-47
2022/12/11 05:23:36;;;;;;;40.15;13.50;;;0.70;99.90;;;;;;5035701;28;20043;-46
2022/12/11 05:26:06;;;;;;;45.28;15.50;;;0.50;99.90;;;;;;5036096;28;20404;-46
2022/12/11 05:28:34;;;;;;;40.70;14.40;;;0.70;99.90;;;;;;5053540;28;20079;-45
2022/12/11 05:31:22;;;;;;;38.33;14.68;;;0.80;99.90;;;;;;5053691;28;20123;-45
2022/12/11 05:33:49;;;;;;;45.85;14.57;;;0.70;99.90;;;;;;5052853;28;20052;-44
2022/12/11 05:36:17;;;;;;;43.10;13.68;;;0.70;99.90;;;;;;5053431;28;20074;-45
2022/12/11 05:38:44;;;;;;;41.90;14.98;;;0.60;99.90;;;;;;5053252;28;20436;-45
2022/12/11 05:41:12;;;;;;;40.63;15.38;;;0.80;99.90;;;;;;5053496;28;20040;-46
2022/12/11 05:43:38;;;;;;;38.25;13.25;;;0.80;99.90;;;;;;5053384;28;20036;-45
2022/12/11 05:46:11;;;;;;;41.88;13.88;;;0.80;99.90;;;;;;5053299;28;20095;-46
2022/12/11 05:48:38;;;;;;;43.38;14.63;;;0.50;99.90;;;;;;5053088;28;20413;-45
2022/12/11 05:51:05;;;;;;;35.08;14.30;;;0.80;99.90;;;;;;5053292;28;20041;-47
2022/12/11 05:53:30;;;;;;;41.17;14.85;;;0.40;99.90;;;;;;5053323;28;20083;-46
2022/12/11 05:56:05;;;;;;;38.78;14.35;;;0.80;99.90;;;;;;5047121;28;20262;-45
2022/12/11 05:58:31;;;;;;;40.35;13.43;;;0.50;99.90;;;;;;5033150;28;20049;-45
2022/12/11 06:00:57;;;;;;;34.97;13.82;;;0.80;99.90;;;;;;5033308;28;20042;-44
2022/12/11 06:03:23;;;;;;;46.17;14.98;;;0.80;99.90;;;;;;5033233;28;20356;-46
2022/12/11 06:05:48;;;;;;;42.53;14.77;;;0.40;99.90;;;;;;5033155;28;20049;-45
2022/12/11 06:08:14;;;;;;;40.97;15.77;;;0.80;99.90;;;;;;5033136;28;20040;-46
2022/12/11 06:10:47;;;;;;;36.63;13.73;;;0.80;99.90;;;;;;4998303;28;20045;-46
2022/12/11 06:13:14;;;;;;;39.50;14.10;;;0.40;99.90;;;;;;5032726;28;20486;-45
2022/12/11 06:15:40;;;;;;;44.92;15.38;;;0.40;99.90;;;;;;5032773;28;20042;-45
2022/12/11 06:18:06;;;;;;;40.70;13.73;;;0.80;99.90;;;;;;5032991;28;20484;-46
2022/12/11 06:20:32;;;;;;;40.13;14.25;;;0.40;99.90;;;;;;5032906;28;20076;-49
2022/12/11 06:22:58;;;;;;;42.67;14.57;;;0.80;99.90;;;;;;5032443;28;20049;-47
2022/12/11 06:25:24;;;;;;;41.22;15.95;;;0.70;99.90;;;;;;5032944;28;20357;-46
2022/12/11 06:27:51;;;;;;;43.60;15.77;;;0.40;99.90;;;;;;5032627;28;20112;-47
2022/12/11 06:30:17;;;;;;;38.22;13.73;;;0.50;99.90;;;;;;5032561;28;20041;-46
2022/12/11 06:32:43;;;;;;;43.75;14.80;;;0.90;99.90;;;;;;5015070;28;20456;-46
2022/12/11 06:35:09;;;;;;;38.53;14.85;;;0.50;99.90;;;;;;5032667;28;20052;-46
2022/12/11 06:37:36;;;;;;;38.95;16.55;;;0.70;99.90;;;;;;5032597;28;20069;-48
2022/12/11 06:40:07;;;;;;;45.08;15.43;;;0.80;99.90;;;;;;5014253;28;20058;-45
2022/12/11 06:42:32;;;;;;;47.20;15.98;;;0.70;99.90;;;;;;5032338;28;20102;-47
2022/12/11 06:44:58;;;;;;;38.97;14.65;;;0.40;99.90;;;;;;5014841;28;20049;-46
2022/12/11 06:47:28;;;;;;;43.03;13.73;;;0.60;99.90;;;;;;5032238;28;20037;-45
2022/12/11 06:49:54;;;;;;;39.05;13.57;;;0.80;99.90;;;;;;5032308;28;20440;-46
2022/12/11 06:52:24;;;;;;;42.97;14.88;;;0.80;99.90;;;;;;5032346;28;20045;-45
2022/12/11 06:54:50;;;;;;;41.10;14.38;;;0.50;99.90;;;;;;5031646;28;20041;-45
2022/12/11 06:57:16;;;;;;;37.42;14.05;;;0.60;99.90;;;;;;5047767;28;20091;-46
2022/12/11 06:59:42;;;;;;;39.65;14.20;;;0.40;99.90;;;;;;5050980;28;20057;-46
2022/12/11 07:02:13;;;;;;;44.58;14.27;;;0.80;99.90;;;;;;5032941;28;20381;-46
2022/12/11 07:04:39;;;;;;;46.70;14.07;;;0.70;99.90;;;;;;5051190;28;20059;-45
2022/12/11 07:07:05;;;;;;;39.65;12.98;;;0.40;99.90;;;;;;5051273;28;20124;-45
2022/12/11 07:09:31;;;;;;;43.08;14.75;;;0.40;99.90;;;;;;5051055;28;20055;-47
2022/12/11 07:11:57;;;;;;;42.03;15.15;;;0.60;99.90;;;;;;5050702;28;20458;-45
2022/12/11 07:14:22;;;;;;;39.92;15.20;;;0.80;99.90;;;;;;5051065;28;20040;-49
2022/12/11 07:16:48;;;;;;;44.55;15.05;;;0.60;99.90;;;;;;5033559;28;20080;-48
2022/12/11 07:19:14;;;;;;;44.97;14.82;;;0.30;99.90;;;;;;5050146;28;20046;-46
2022/12/11 07:21:39;;;;;;;42.97;14.65;;;0.50;99.90;;;;;;5053226;28;20538;-46
2022/12/11 07:24:06;;;;;;;38.05;12.18;;;0.50;99.90;;;;;;5047079;28;20037;-48
2022/12/11 07:26:32;;;;;;;43.22;13.73;;;0.70;99.90;;;;;;5035067;28;20038;-46
2022/12/11 07:28:58;;;;;;;40.80;15.23;;;0.70;99.90;;;;;;5034948;28;20098;-45
2022/12/11 07:31:26;;;;;;;39.15;13.98;;;0.50;99.90;;;;;;5035124;28;20111;-49
2022/12/11 07:33:53;;;;;;;39.55;12.35;;;0.70;99.90;;;;;;5035123;28;20049;-46
2022/12/11 07:36:19;;;;;;;36.70;13.70;;;0.80;99.90;;;;;;5035071;28;20041;-46
2022/12/11 07:38:45;;;;;;;40.30;14.10;;;0.90;99.90;;;;;;5034773;28;20524;-47
2022/12/11 07:41:13;;;;;;;39.28;14.57;;;0.80;99.90;;;;;;5034863;28;20052;-47
2022/12/11 07:43:39;;;;;;;39.80;13.73;;;0.60;99.90;;;;;;5034751;28;20076;-45
2022/12/11 07:46:08;;;;;;;39.13;14.15;;;0.80;99.90;;;;;;5034939;28;20033;-46
2022/12/11 07:48:38;;;;;;;40.25;13.73;;;0.70;99.90;;;;;;5034627;28;20094;-46
2022/12/11 07:51:11;;;;;;;39.22;14.52;;;0.90;99.90;;;;;;5017074;28;20703;-45
2022/12/11 07:53:37;;;;;;;38.80;14.73;;;0.70;99.90;;;;;;5016849;28;20060;-46
2022/12/11 07:56:03;;;;;;;38.42;13.48;;;0.80;99.90;;;;;;5041940;28;20041;-45
2022/12/11 07:58:29;;;;;;;37.58;14.23;;;0.60;99.90;;;;;;5054438;28;20036;-48
2022/12/11 08:00:54;;;;;;;39.45;14.18;;;0.80;99.90;;;;;;5054494;28;20501;-46
2022/12/11 08:03:20;;;;;;;37.55;13.73;;;0.70;99.90;;;;;;5054713;28;20111;-45
2022/12/11 08:05:49;;;;;;;41.75;15.48;;;0.90;99.90;;;;;;5054514;28;20083;-47
2022/12/11 08:08:15;;;;;;;37.10;12.45;;;0.70;99.90;;;;;;5054227;28;20075;-48
2022/12/11 08:10:42;;;;;;;48.28;17.27;;;0.80;99.90;;;;;;5054484;28;20045;-48
2022/12/11 08:13:07;;;;;;;43.00;14.27;;;0.60;99.90;;;;;;5054386;28;20113;-46
2022/12/11 08:15:34;;;;;;;43.78;14.40;;;0.70;99.90;;;;;;5027998;28;20124;-46
2022/12/11 08:17:59;;;;;;;40.65;15.15;;;0.80;99.90;;;;;;5045526;28;20456;-49
2022/12/11 08:20:25;;;;;;;47.90;14.07;;;0.90;99.90;;;;;;5044220;28;20076;-45
2022/12/11 08:22:51;;;;;;;38.15;14.07;;;0.70;99.90;;;;;;5044075;28;20038;-44
2022/12/11 08:25:16;;;;;;;44.05;14.57;;;0.90;99.90;;;;;;5022357;28;20401;-45
2022/12/11 08:27:42;;;;;;;40.10;13.60;;;0.70;99.90;;;;;;5042274;28;20388;-45
2022/12/11 08:30:08;;;;;;;41.35;14.15;;;0.70;99.90;;;;;;5044382;28;20049;-46
2022/12/11 08:32:34;;;;;;;45.42;13.93;;;1.00;99.90;;;;;;5041766;28;20037;-51
2022/12/11 08:35:00;;;;;;;44.47;14.90;;;0.90;99.90;;;;;;5045096;28;20045;-54
2022/12/11 08:37:26;;;;;;;37.75;15.73;;;0.80;99.90;;;;;;5042904;28;20515;-52
2022/12/11 08:39:52;;;;;;;40.58;16.23;;;1.00;99.90;;;;;;5036245;28;20050;-51
2022/12/11 08:42:17;;;;;;;48.53;16.70;;;0.60;99.90;;;;;;5033804;28;20038;-51
2022/12/11 08:44:43;;;;;;;41.95;14.40;;;0.80;99.90;;;;;;5043754;28;20481;-53
2022/12/11 08:47:08;;;;;;;38.20;14.40;;;0.60;99.90;;;;;;5048465;28;20068;-53
2022/12/11 08:49:35;;;;;;;41.38;13.70;;;0.60;99.90;;;;;;5053284;28;20048;-52
2022/12/11 08:52:03;;;;;;;41.22;13.63;;;0.80;99.90;;;;;;5052799;28;20547;-51
2022/12/11 08:54:29;;;;;;;39.10;13.60;;;0.90;99.90;;;;;;5052860;28;20047;-53
2022/12/11 08:56:55;;;;;;;39.53;13.95;;;0.70;99.90;;;;;;5038845;28;20045;-55
2022/12/11 08:59:20;;;;;;;44.80;14.95;;;0.80;99.90;;;;;;5015425;28;20072;-55
2022/12/11 09:01:46;;;;;;;45.15;13.75;;;0.70;99.90;;;;;;5033297;28;20042;-53
2022/12/11 09:04:12;;;;;;;43.88;16.83;;;0.70;99.90;;;;;;5033285;28;20041;-54
2022/12/11 09:06:37;;;;;;;46.05;13.95;;;1.00;99.90;;;;;;5033234;28;20037;-55
2022/12/11 09:09:03;;;;;;;43.75;15.38;;;1.00;99.90;;;;;;5033422;28;20103;-55
2022/12/11 09:11:32;;;;;;;45.78;15.68;;;0.70;99.90;;;;;;5033051;28;20051;-55
2022/12/11 09:13:58;;;;;;;42.60;15.48;;;0.80;99.90;;;;;;5033084;28;20037;-55
2022/12/11 09:16:25;;;;;;;44.95;16.08;;;1.00;99.90;;;;;;5033264;28;20091;-52
2022/12/11 09:18:54;;;;;;;44.45;14.57;;;1.00;99.90;;;;;;5015309;28;20050;-51
2022/12/11 09:21:22;;;;;;;43.05;14.73;;;1.00;99.90;;;;;;5032864;28;20087;-55
2022/12/11 09:23:51;;;;;;;45.70;15.25;;;0.80;99.90;;;;;;5033118;28;20099;-55
2022/12/11 09:26:17;;;;;;;45.72;17.05;;;1.00;99.90;;;;;;5033249;28;20498;-55
2022/12/11 09:28:43;;;;;;;43.17;15.68;;;0.80;99.90;;;;;;5032669;28;20048;-55
2022/12/11 09:31:10;;;;;;;51.50;16.15;;;1.00;99.90;;;;;;5032843;28;20049;-54
2022/12/11 09:33:36;;;;;;;47.22;16.92;;;0.80;99.90;;;;;;5032962;28;20112;-54
2022/12/11 09:36:03;;;;;;;49.92;16.35;;;0.80;99.90;;;;;;5032942;28;20398;-55
2022/12/11 09:38:29;;;;;;;50.38;15.38;;;1.00;99.90;;;;;;5032999;28;20049;-55
2022/12/11 09:40:55;;;;;;;42.80;16.35;;;1.00;99.90;;;;;;5032263;28;20104;-55
2022/12/11 09:43:39;;;;;;;47.22;15.02;;;0.80;99.90;;;;;;5032754;28;20049;-55
2022/12/11 09:46:11;;;;;;;46.30;15.40;;;1.10;99.90;;;;;;5032421;28;20080;-53
2022/12/11 09:48:38;;;;;;;49.55;16.13;;;0.80;99.90;;;;;;5032792;28;20481;-55
2022/12/11 09:51:13;;;;;;;57.00;16.75;;;1.10;99.90;;;;;;5032674;28;20402;-52
2022/12/11 09:53:39;;;;;;;48.38;17.65;;;1.20;99.90;;;;;;5032270;28;20060;-55
2022/12/11 09:56:21;;;;;;;49.97;15.93;;;0.90;99.90;;;;;;5039665;28;20041;-54
2022/12/11 09:59:17;;;;;;;47.00;17.02;;;1.10;99.90;;;;;;5051994;28;20377;-52
2022/12/11 10:01:48;;;;;;;46.88;17.35;;;1.10;99.90;;;;;;5052235;28;20440;-54
2022/12/11 10:04:38;;;;;;;49.13;16.27;;;1.20;99.90;;;;;;5052165;28;20485;-55
2022/12/11 10:07:10;;;;;;;49.17;16.35;;;1.20;99.90;;;;;;5052037;28;20052;-52
2022/12/11 10:10:21;;;;;;;46.60;15.77;;;1.00;99.90;;;;;;5052330;28;20071;-54
2022/12/11 10:13:01;;;;;;;51.25;18.10;;;1.00;99.90;;;;;;5040499;28;20057;-54
2022/12/11 10:15:42;;;;;;;49.97;17.60;;;0.90;99.90;;;;;;5033794;28;20040;-54
2022/12/11 10:18:16;;;;;;;46.67;16.75;;;0.90;99.90;;;;;;5051899;28;20072;-52
2022/12/11 10:20:44;;;;;;;50.92;16.45;;;1.20;99.90;;;;;;5051827;28;20103;-51
2022/12/11 10:23:34;;;;;;;48.90;16.15;;;1.30;99.90;;;;;;5051996;28;20428;-52
2022/12/11 10:26:15;;;;;;;47.47;17.50;;;1.00;99.90;;;;;;5051640;28;20033;-53
2022/12/11 10:28:41;;;;;;;51.60;16.38;;;1.20;99.90;;;;;;5051763;28;20371;-54
2022/12/11 10:31:17;;;;;;;48.58;17.30;;;1.30;99.90;;;;;;5051460;28;20075;-52
2022/12/11 10:33:58;;;;;;;50.65;16.80;;;1.00;99.90;;;;;;5051689;28;20043;-55
2022/12/11 10:36:29;;;;;;;46.28;16.55;;;1.10;99.90;;;;;;5051314;28;20091;-53
2022/12/11 10:38:55;;;;;;;53.03;16.88;;;1.20;99.90;;;;;;5051548;28;20045;-52
2022/12/11 10:41:42;;;;;;;50.50;16.52;;;1.30;99.90;;;;;;5051199;28;20049;-51
2022/12/11 10:44:26;;;;;;;47.85;16.95;;;1.20;99.90;;;;;;5050597;28;20045;-54
2022/12/11 10:47:02;;;;;;;47.70;17.25;;;1.40;99.90;;;;;;5051217;28;20048;-53
2022/12/11 10:49:31;;;;;;;53.13;17.42;;;1.10;99.90;;;;;;5051393;28;20412;-53
2022/12/11 10:52:01;;;;;;;49.80;18.13;;;1.30;99.90;;;;;;5051158;28;20047;-55
2022/12/11 10:54:39;;;;;;;49.40;17.90;;;1.20;99.90;;;;;;5051149;28;20119;-48
2022/12/11 10:57:07;;;;;;;52.42;17.10;;;1.50;99.90;;;;;;5034985;28;20064;-46
2022/12/11 10:59:42;;;;;;;54.05;18.23;;;1.10;99.90;;;;;;5031392;28;20367;-45
2022/12/11 11:02:18;;;;;;;51.47;17.95;;;1.10;99.90;;;;;;5031036;28;20403;-46
2022/12/11 11:04:44;;;;;;;53.33;18.75;;;1.00;99.90;;;;;;5030918;28;20037;-46
2022/12/11 11:07:18;;;;;;;54.22;16.95;;;1.10;99.90;;;;;;5030899;28;20051;-46
2022/12/11 11:09:44;;;;;;;55.75;19.15;;;1.30;99.90;;;;;;5031068;28;20045;-46
2022/12/11 11:12:26;;;;;;;53.42;19.58;;;1.10;99.90;;;;;;5031062;28;20123;-46
2022/12/11 11:15:21;;;;;;;49.47;16.88;;;1.30;99.90;;;;;;5031215;28;20052;-49
2022/12/11 11:18:03;;;;;;;58.00;20.92;;;1.30;99.90;;;;;;5029248;28;20056;-45
2022/12/11 11:20:30;;;;;;;56.85;18.10;;;1.40;99.90;;;;;;5013327;28;20049;-45
2022/12/11 11:23:01;;;;;;;54.22;18.98;;;1.20;99.90;;;;;;5031019;28;20033;-48
2022/12/11 11:25:30;;;;;;;54.80;18.67;;;1.10;99.90;;;;;;5031002;28;20041;-47
2022/12/11 11:28:02;;;;;;;54.47;20.88;;;1.50;99.90;;;;;;5030897;28;20281;-53
2022/12/11 11:30:29;;;;;;;;;;;1.20;99.90;;;;;;5031073;28;20465;-52
2022/12/11 11:33:16;;;;;;;65.13;26.48;;;1.20;99.90;;;;;;5030299;28;20323;-52
2022/12/11 11:35:55;;;;;;;54.25;21.83;;;1.50;99.90;;;;;;5030891;28;20038;-54
2022/12/11 11:38:26;;;;;;;219.90;92.82;;;1.40;99.90;;;;;;5031080;28;20037;-52
2022/12/11 11:41:05;;;;;;;67.90;26.50;;;1.50;99.90;;;;;;5030818;28;20054;-54
2022/12/11 11:43:41;;;;;;;60.55;23.65;;;1.40;99.90;;;;;;5031116;28;20119;-51
2022/12/11 11:46:23;;;;;;;57.42;23.15;;;1.60;99.90;;;;;;5036175;28;20040;-62
2022/12/11 11:49:01;;;;;;;51.17;19.42;;;1.50;99.90;;;;;;5043443;28;20369;-52
2022/12/11 11:52:03;;;;;;;49.10;17.35;;;1.60;99.90;;;;;;5033059;28;20101;-46
2022/12/11 11:55:08;;;;;;;49.25;18.83;;;1.60;99.90;;;;;;4989700;28;20432;-46
2022/12/11 11:57:56;;;;;;;42.22;16.23;;;1.60;99.90;;;;;;5050579;28;20063;-47
2022/12/11 12:00:27;;;;;;;56.00;19.33;;;1.50;99.90;;;;;;5050692;28;20044;-47
2022/12/11 12:03:09;;;;;;;47.92;16.67;;;1.40;99.90;;;;;;5050657;28;20055;-46
2022/12/11 12:05:53;;;;;;;48.90;17.90;;;1.50;99.90;;;;;;5050500;28;20442;-49
2022/12/11 12:08:24;;;;;;;49.53;18.50;;;1.40;99.90;;;;;;5052643;28;20045;-47
2022/12/11 12:11:02;;;;;;;48.97;17.55;;;1.40;99.90;;;;;;5054573;28;20040;-46
2022/12/11 12:13:40;;;;;;;52.38;19.25;;;1.60;99.90;;;;;;5053990;28;20442;-47
2022/12/11 12:16:18;;;;;;;47.72;17.67;;;1.60;99.90;;;;;;5054123;28;20465;-46
2022/12/11 12:19:26;;;;;;;44.28;17.73;;;1.40;99.90;;;;;;5053888;28;20558;-46
2022/12/11 12:21:54;;;;;;;47.75;18.25;;;1.50;99.90;;;;;;5043133;28;20057;-47
2022/12/11 12:24:43;;;;;;;45.38;18.15;;;1.50;99.90;;;;;;5053954;28;20048;-48
2022/12/11 12:27:22;;;;;;;50.13;19.15;;;1.50;99.90;;;;;;5053228;28;20461;-47
2022/12/11 12:30:03;;;;;;;46.28;18.25;;;1.50;99.90;;;;;;5054174;28;20381;-47
2022/12/11 12:32:55;;;;;;;46.38;19.50;;;1.50;99.90;;;;;;5053995;28;20052;-47
2022/12/11 12:35:36;;;;;;;46.30;15.93;;;1.60;99.90;;;;;;5054175;28;20029;-47
2022/12/11 12:38:13;;;;;;;46.70;17.20;;;1.80;99.90;;;;;;5053685;28;20048;-47
2022/12/11 12:40:45;;;;;;;45.28;21.45;;;1.60;99.90;;;;;;5053455;28;20859;-46
2022/12/11 12:43:28;;;;;;;38.35;16.55;;;1.70;99.90;;;;;;5053880;28;20444;-46
2022/12/11 12:46:06;;;;;;;41.90;17.15;;;1.60;99.90;;;;;;5019305;28;20037;-46
2022/12/11 12:48:31;;;;;;;45.67;17.10;;;1.60;99.90;;;;;;5053564;28;20128;-47
2022/12/11 12:50:58;;;;;;;42.92;17.67;;;1.80;99.90;;;;;;5053264;28;20167;-47
2022/12/11 12:53:27;;;;;;;46.05;19.48;;;1.60;99.90;;;;;;5053496;28;20087;-47
2022/12/11 12:55:54;;;;;;;38.80;17.17;;;1.70;99.90;;;;;;5047467;28;20049;-46
2022/12/11 12:58:34;;;;;;;44.50;17.70;;;1.60;99.90;;;;;;5015074;28;20482;-47
2022/12/11 13:01:30;;;;;;;42.97;16.92;;;1.80;99.90;;;;;;5033306;28;20075;-47
2022/12/11 13:03:57;;;;;;;42.50;17.83;;;1.60;99.90;;;;;;5008537;28;20053;-46